sensor_id;sensor_type;location;lat;lon;timestamp;P1;durP1;ratioP1;P2;durP2;ratioP2
38399;SDS011;24180;42.676;23.320;2023-03-11T00:00:08;22.17;;;18.67;;
38399;SDS011;24180;42.676;23.320;2023-03-11T00:02:38;19.10;;;14.43;;
38399;SDS011;24180;42.676;23.320;2023-03-11T00:05:04;11.50;;;8.90;;
38399;SDS011;24180;42.676;23.320;2023-03-11T00:07:30;13.37;;;8.93;;
38399;SDS011;24180;42.676;23.320;2023-03-11T00:09:56;5.70;;;5.13;;
38399;SDS011;24180;42.676;23.320;2023-03-11T00:12:21;6.13;;;4.20;;
38399;SDS011;24180;42.676;23.320;2023-03-11T00:14:47;2.83;;;2.63;;
38399;SDS011;24180;42.676;23.320;2023-03-11T00:17:12;4.00;;;2.80;;
38399;SDS011;24180;42.676;23.320;2023-03-11T00:19:37;2.67;;;2.47;;
38399;SDS011;24180;42.676;23.320;2023-03-11T00:22:03;2.50;;;2.40;;
38399;SDS011;24180;42.676;23.320;2023-03-11T00:24:28;3.03;;;2.77;;
38399;SDS011;24180;42.676;23.320;2023-03-11T00:26:54;2.60;;;2.40;;
38399;SDS011;24180;42.676;23.320;2023-03-11T00:29:19;3.10;;;2.37;;
38399;SDS011;24180;42.676;23.320;2023-03-11T00:31:44;2.63;;;2.43;;
38399;SDS011;24180;42.676;23.320;2023-03-11T00:34:10;2.13;;;2.03;;
38399;SDS011;24180;42.676;23.320;2023-03-11T00:36:35;3.83;;;2.20;;
38399;SDS011;24180;42.676;23.320;2023-03-11T00:39:01;2.00;;;1.90;;
38399;SDS011;24180;42.676;23.320;2023-03-11T00:41:30;2.30;;;2.20;;
38399;SDS011;24180;42.676;23.320;2023-03-11T00:43:57;2.47;;;2.27;;
38399;SDS011;24180;42.676;23.320;2023-03-11T00:46:22;3.47;;;2.10;;
38399;SDS011;24180;42.676;23.320;2023-03-11T00:48:49;3.20;;;2.20;;
38399;SDS011;24180;42.676;23.320;2023-03-11T00:51:15;2.80;;;2.50;;
38399;SDS011;24180;42.676;23.320;2023-03-11T00:53:41;3.07;;;2.77;;
38399;SDS011;24180;42.676;23.320;2023-03-11T00:56:10;2.20;;;2.10;;
38399;SDS011;24180;42.676;23.320;2023-03-11T00:58:37;3.33;;;2.20;;
38399;SDS011;24180;42.676;23.320;2023-03-11T01:01:09;3.73;;;2.27;;
38399;SDS011;24180;42.676;23.320;2023-03-11T01:03:37;2.20;;;2.00;;
38399;SDS011;24180;42.676;23.320;2023-03-11T01:06:03;3.00;;;2.10;;
38399;SDS011;24180;42.676;23.320;2023-03-11T01:08:29;2.60;;;2.40;;
38399;SDS011;24180;42.676;23.320;2023-03-11T01:10:55;2.07;;;1.90;;
38399;SDS011;24180;42.676;23.320;2023-03-11T01:13:22;3.90;;;2.90;;
38399;SDS011;24180;42.676;23.320;2023-03-11T01:15:47;2.70;;;2.50;;
38399;SDS011;24180;42.676;23.320;2023-03-11T01:18:13;2.87;;;2.67;;
38399;SDS011;24180;42.676;23.320;2023-03-11T01:20:39;2.93;;;2.70;;
38399;SDS011;24180;42.676;23.320;2023-03-11T01:23:07;2.73;;;2.50;;
38399;SDS011;24180;42.676;23.320;2023-03-11T01:25:33;2.73;;;2.53;;
38399;SDS011;24180;42.676;23.320;2023-03-11T01:27:58;3.27;;;2.70;;
38399;SDS011;24180;42.676;23.320;2023-03-11T01:30:24;2.90;;;2.70;;
38399;SDS011;24180;42.676;23.320;2023-03-11T01:32:52;2.70;;;2.50;;
38399;SDS011;24180;42.676;23.320;2023-03-11T01:35:18;3.37;;;3.07;;
38399;SDS011;24180;42.676;23.320;2023-03-11T01:37:45;5.40;;;3.17;;
38399;SDS011;24180;42.676;23.320;2023-03-11T01:40:13;3.23;;;3.00;;
38399;SDS011;24180;42.676;23.320;2023-03-11T01:43:03;2.97;;;2.77;;
38399;SDS011;24180;42.676;23.320;2023-03-11T01:48:14;2.77;;;2.57;;
38399;SDS011;24180;42.676;23.320;2023-03-11T01:50:43;4.20;;;2.90;;
38399;SDS011;24180;42.676;23.320;2023-03-11T01:53:13;3.57;;;2.80;;
38399;SDS011;24180;42.676;23.320;2023-03-11T01:55:40;3.13;;;2.60;;
38399;SDS011;24180;42.676;23.320;2023-03-11T01:58:07;3.17;;;2.87;;
38399;SDS011;24180;42.676;23.320;2023-03-11T02:00:36;3.10;;;2.90;;
38399;SDS011;24180;42.676;23.320;2023-03-11T02:03:06;3.77;;;3.47;;
38399;SDS011;24180;42.676;23.320;2023-03-11T02:05:39;4.47;;;3.80;;
38399;SDS011;24180;42.676;23.320;2023-03-11T02:08:05;4.77;;;4.33;;
38399;SDS011;24180;42.676;23.320;2023-03-11T02:10:31;5.43;;;4.40;;
38399;SDS011;24180;42.676;23.320;2023-03-11T02:12:56;7.10;;;5.47;;
38399;SDS011;24180;42.676;23.320;2023-03-11T02:15:23;6.10;;;5.50;;
38399;SDS011;24180;42.676;23.320;2023-03-11T02:17:50;5.43;;;4.93;;
38399;SDS011;24180;42.676;23.320;2023-03-11T02:20:21;5.37;;;4.60;;
38399;SDS011;24180;42.676;23.320;2023-03-11T02:22:50;7.10;;;5.43;;
38399;SDS011;24180;42.676;23.320;2023-03-11T02:28:17;5.37;;;4.87;;
38399;SDS011;24180;42.676;23.320;2023-03-11T02:30:45;6.33;;;5.80;;
38399;SDS011;24180;42.676;23.320;2023-03-11T02:33:12;6.83;;;4.90;;
38399;SDS011;24180;42.676;23.320;2023-03-11T02:35:39;4.57;;;4.17;;
38399;SDS011;24180;42.676;23.320;2023-03-11T02:38:05;4.77;;;4.37;;
38399;SDS011;24180;42.676;23.320;2023-03-11T02:40:45;6.23;;;4.90;;
38399;SDS011;24180;42.676;23.320;2023-03-11T02:43:18;4.70;;;4.30;;
38399;SDS011;24180;42.676;23.320;2023-03-11T02:45:47;4.57;;;4.23;;
38399;SDS011;24180;42.676;23.320;2023-03-11T02:48:13;4.27;;;3.87;;
38399;SDS011;24180;42.676;23.320;2023-03-11T02:50:41;4.07;;;3.60;;
38399;SDS011;24180;42.676;23.320;2023-03-11T02:53:08;2.97;;;2.77;;
38399;SDS011;24180;42.676;23.320;2023-03-11T02:55:34;2.70;;;2.50;;
38399;SDS011;24180;42.676;23.320;2023-03-11T02:57:59;2.30;;;2.20;;
38399;SDS011;24180;42.676;23.320;2023-03-11T03:00:25;4.23;;;2.37;;
38399;SDS011;24180;42.676;23.320;2023-03-11T03:02:51;2.60;;;2.50;;
38399;SDS011;24180;42.676;23.320;2023-03-11T03:05:17;2.50;;;2.30;;
38399;SDS011;24180;42.676;23.320;2023-03-11T03:07:47;2.57;;;2.43;;
38399;SDS011;24180;42.676;23.320;2023-03-11T03:10:13;2.23;;;2.13;;
38399;SDS011;24180;42.676;23.320;2023-03-11T03:12:39;2.27;;;2.17;;
38399;SDS011;24180;42.676;23.320;2023-03-11T03:15:05;2.50;;;2.37;;
38399;SDS011;24180;42.676;23.320;2023-03-11T03:17:31;2.30;;;2.10;;
38399;SDS011;24180;42.676;23.320;2023-03-11T03:19:56;3.10;;;2.73;;
38399;SDS011;24180;42.676;23.320;2023-03-11T03:22:21;2.17;;;2.07;;
38399;SDS011;24180;42.676;23.320;2023-03-11T03:24:51;2.40;;;1.90;;
38399;SDS011;24180;42.676;23.320;2023-03-11T03:27:17;2.10;;;2.00;;
38399;SDS011;24180;42.676;23.320;2023-03-11T03:29:42;2.10;;;2.00;;
38399;SDS011;24180;42.676;23.320;2023-03-11T03:32:08;2.50;;;2.30;;
38399;SDS011;24180;42.676;23.320;2023-03-11T03:34:33;2.20;;;2.10;;
38399;SDS011;24180;42.676;23.320;2023-03-11T03:36:59;2.00;;;1.90;;
38399;SDS011;24180;42.676;23.320;2023-03-11T03:39:24;2.00;;;1.90;;
38399;SDS011;24180;42.676;23.320;2023-03-11T03:41:49;2.10;;;2.00;;
38399;SDS011;24180;42.676;23.320;2023-03-11T03:44:15;2.30;;;2.10;;
38399;SDS011;24180;42.676;23.320;2023-03-11T03:46:40;2.10;;;2.00;;
38399;SDS011;24180;42.676;23.320;2023-03-11T03:49:06;1.87;;;1.70;;
38399;SDS011;24180;42.676;23.320;2023-03-11T03:51:32;2.00;;;1.90;;
38399;SDS011;24180;42.676;23.320;2023-03-11T03:53:58;2.03;;;1.93;;
38399;SDS011;24180;42.676;23.320;2023-03-11T03:56:23;2.03;;;1.93;;
38399;SDS011;24180;42.676;23.320;2023-03-11T03:58:49;2.03;;;1.93;;
38399;SDS011;24180;42.676;23.320;2023-03-11T04:01:14;1.90;;;1.80;;
38399;SDS011;24180;42.676;23.320;2023-03-11T04:03:39;1.90;;;1.80;;
38399;SDS011;24180;42.676;23.320;2023-03-11T04:06:09;2.03;;;1.93;;
38399;SDS011;24180;42.676;23.320;2023-03-11T04:08:45;2.00;;;1.90;;
38399;SDS011;24180;42.676;23.320;2023-03-11T04:11:11;2.20;;;2.10;;
38399;SDS011;24180;42.676;23.320;2023-03-11T04:13:37;1.70;;;1.70;;
38399;SDS011;24180;42.676;23.320;2023-03-11T04:16:04;2.00;;;1.80;;
38399;SDS011;24180;42.676;23.320;2023-03-11T04:18:30;1.90;;;1.80;;
38399;SDS011;24180;42.676;23.320;2023-03-11T04:20:56;2.00;;;1.73;;
38399;SDS011;24180;42.676;23.320;2023-03-11T04:23:21;1.70;;;1.70;;
38399;SDS011;24180;42.676;23.320;2023-03-11T04:25:47;1.70;;;1.70;;
38399;SDS011;24180;42.676;23.320;2023-03-11T04:28:12;1.80;;;1.70;;
38399;SDS011;24180;42.676;23.320;2023-03-11T04:30:38;1.73;;;1.70;;
38399;SDS011;24180;42.676;23.320;2023-03-11T04:33:03;2.83;;;2.03;;
38399;SDS011;24180;42.676;23.320;2023-03-11T04:35:29;2.00;;;1.90;;
38399;SDS011;24180;42.676;23.320;2023-03-11T04:37:54;2.10;;;2.00;;
38399;SDS011;24180;42.676;23.320;2023-03-11T04:40:20;1.83;;;1.73;;
38399;SDS011;24180;42.676;23.320;2023-03-11T04:42:45;2.17;;;2.07;;
38399;SDS011;24180;42.676;23.320;2023-03-11T04:45:10;1.90;;;1.80;;
38399;SDS011;24180;42.676;23.320;2023-03-11T04:47:37;1.97;;;1.87;;
38399;SDS011;24180;42.676;23.320;2023-03-11T04:50:02;1.67;;;1.67;;
38399;SDS011;24180;42.676;23.320;2023-03-11T04:52:28;1.97;;;1.87;;
38399;SDS011;24180;42.676;23.320;2023-03-11T04:54:54;1.90;;;1.80;;
38399;SDS011;24180;42.676;23.320;2023-03-11T04:57:19;1.93;;;1.83;;
38399;SDS011;24180;42.676;23.320;2023-03-11T04:59:45;1.80;;;1.70;;
38399;SDS011;24180;42.676;23.320;2023-03-11T05:02:11;1.70;;;1.70;;
38399;SDS011;24180;42.676;23.320;2023-03-11T05:04:36;2.10;;;2.00;;
38399;SDS011;24180;42.676;23.320;2023-03-11T05:07:02;2.00;;;1.90;;
38399;SDS011;24180;42.676;23.320;2023-03-11T05:09:27;2.07;;;1.97;;
38399;SDS011;24180;42.676;23.320;2023-03-11T05:11:53;2.00;;;1.90;;
38399;SDS011;24180;42.676;23.320;2023-03-11T05:14:18;5.47;;;2.20;;
38399;SDS011;24180;42.676;23.320;2023-03-11T05:16:44;1.90;;;1.80;;
38399;SDS011;24180;42.676;23.320;2023-03-11T05:19:09;2.00;;;1.90;;
38399;SDS011;24180;42.676;23.320;2023-03-11T05:21:53;2.20;;;2.10;;
38399;SDS011;24180;42.676;23.320;2023-03-11T05:24:19;2.10;;;1.80;;
38399;SDS011;24180;42.676;23.320;2023-03-11T05:26:44;2.17;;;2.07;;
38399;SDS011;24180;42.676;23.320;2023-03-11T05:29:10;2.70;;;1.90;;
38399;SDS011;24180;42.676;23.320;2023-03-11T05:31:35;2.80;;;1.90;;
38399;SDS011;24180;42.676;23.320;2023-03-11T05:34:00;1.80;;;1.70;;
38399;SDS011;24180;42.676;23.320;2023-03-11T05:36:26;2.20;;;2.10;;
38399;SDS011;24180;42.676;23.320;2023-03-11T05:38:51;2.13;;;2.03;;
38399;SDS011;24180;42.676;23.320;2023-03-11T05:41:17;1.93;;;1.80;;
38399;SDS011;24180;42.676;23.320;2023-03-11T05:43:43;2.30;;;2.20;;
38399;SDS011;24180;42.676;23.320;2023-03-11T05:46:09;1.80;;;1.70;;
38399;SDS011;24180;42.676;23.320;2023-03-11T05:48:35;1.90;;;1.80;;
38399;SDS011;24180;42.676;23.320;2023-03-11T05:51:05;2.20;;;2.10;;
38399;SDS011;24180;42.676;23.320;2023-03-11T05:53:31;2.13;;;1.70;;
38399;SDS011;24180;42.676;23.320;2023-03-11T05:55:57;1.90;;;1.80;;
38399;SDS011;24180;42.676;23.320;2023-03-11T05:58:23;2.10;;;2.00;;
38399;SDS011;24180;42.676;23.320;2023-03-11T06:00:49;2.00;;;1.90;;
38399;SDS011;24180;42.676;23.320;2023-03-11T06:03:14;2.10;;;2.00;;
38399;SDS011;24180;42.676;23.320;2023-03-11T06:05:47;2.13;;;2.03;;
38399;SDS011;24180;42.676;23.320;2023-03-11T06:08:13;2.40;;;2.20;;
38399;SDS011;24180;42.676;23.320;2023-03-11T06:10:40;2.30;;;2.20;;
38399;SDS011;24180;42.676;23.320;2023-03-11T06:13:06;2.50;;;2.30;;
38399;SDS011;24180;42.676;23.320;2023-03-11T06:15:32;2.13;;;2.03;;
38399;SDS011;24180;42.676;23.320;2023-03-11T06:17:58;2.60;;;2.40;;
38399;SDS011;24180;42.676;23.320;2023-03-11T06:20:24;2.77;;;2.67;;
38399;SDS011;24180;42.676;23.320;2023-03-11T06:22:50;2.20;;;2.10;;
38399;SDS011;24180;42.676;23.320;2023-03-11T06:25:16;2.37;;;2.17;;
38399;SDS011;24180;42.676;23.320;2023-03-11T06:27:42;2.70;;;2.50;;
38399;SDS011;24180;42.676;23.320;2023-03-11T06:30:09;2.60;;;2.40;;
38399;SDS011;24180;42.676;23.320;2023-03-11T06:32:35;3.20;;;2.50;;
38399;SDS011;24180;42.676;23.320;2023-03-11T06:35:01;3.83;;;2.80;;
38399;SDS011;24180;42.676;23.320;2023-03-11T06:37:27;2.47;;;2.27;;
38399;SDS011;24180;42.676;23.320;2023-03-11T06:39:53;2.53;;;2.40;;
38399;SDS011;24180;42.676;23.320;2023-03-11T06:42:19;2.70;;;2.50;;
38399;SDS011;24180;42.676;23.320;2023-03-11T06:44:47;2.20;;;2.10;;
38399;SDS011;24180;42.676;23.320;2023-03-11T06:47:13;2.20;;;2.10;;
38399;SDS011;24180;42.676;23.320;2023-03-11T06:49:39;2.20;;;2.10;;
38399;SDS011;24180;42.676;23.320;2023-03-11T06:52:06;4.13;;;2.60;;
38399;SDS011;24180;42.676;23.320;2023-03-11T06:54:32;4.17;;;2.30;;
38399;SDS011;24180;42.676;23.320;2023-03-11T06:56:57;2.43;;;2.20;;
38399;SDS011;24180;42.676;23.320;2023-03-11T06:59:23;2.53;;;2.40;;
38399;SDS011;24180;42.676;23.320;2023-03-11T07:01:48;3.20;;;3.00;;
38399;SDS011;24180;42.676;23.320;2023-03-11T07:04:13;3.03;;;2.70;;
38399;SDS011;24180;42.676;23.320;2023-03-11T07:06:39;2.73;;;2.63;;
38399;SDS011;24180;42.676;23.320;2023-03-11T07:09:05;3.00;;;2.07;;
38399;SDS011;24180;42.676;23.320;2023-03-11T07:11:30;2.10;;;2.00;;
38399;SDS011;24180;42.676;23.320;2023-03-11T07:13:56;2.30;;;2.10;;
38399;SDS011;24180;42.676;23.320;2023-03-11T07:16:22;2.40;;;2.20;;
38399;SDS011;24180;42.676;23.320;2023-03-11T07:18:50;2.17;;;2.07;;
38399;SDS011;24180;42.676;23.320;2023-03-11T07:21:18;2.30;;;2.20;;
38399;SDS011;24180;42.676;23.320;2023-03-11T07:23:45;2.20;;;2.10;;
38399;SDS011;24180;42.676;23.320;2023-03-11T07:26:12;2.50;;;2.30;;
38399;SDS011;24180;42.676;23.320;2023-03-11T07:28:38;2.27;;;2.07;;
38399;SDS011;24180;42.676;23.320;2023-03-11T07:31:08;2.60;;;2.40;;
38399;SDS011;24180;42.676;23.320;2023-03-11T07:33:35;2.80;;;2.60;;
38399;SDS011;24180;42.676;23.320;2023-03-11T07:36:04;2.70;;;2.50;;
38399;SDS011;24180;42.676;23.320;2023-03-11T07:38:31;2.03;;;1.93;;
38399;SDS011;24180;42.676;23.320;2023-03-11T07:40:57;2.27;;;2.17;;
38399;SDS011;24180;42.676;23.320;2023-03-11T07:43:23;2.27;;;2.17;;
38399;SDS011;24180;42.676;23.320;2023-03-11T07:45:48;2.40;;;2.30;;
38399;SDS011;24180;42.676;23.320;2023-03-11T07:48:15;2.50;;;2.30;;
38399;SDS011;24180;42.676;23.320;2023-03-11T07:50:41;2.10;;;2.00;;
38399;SDS011;24180;42.676;23.320;2023-03-11T07:53:06;2.50;;;2.30;;
38399;SDS011;24180;42.676;23.320;2023-03-11T07:55:32;2.23;;;2.10;;
38399;SDS011;24180;42.676;23.320;2023-03-11T07:57:57;2.73;;;2.53;;
38399;SDS011;24180;42.676;23.320;2023-03-11T08:00:23;4.17;;;2.73;;
38399;SDS011;24180;42.676;23.320;2023-03-11T08:02:48;2.60;;;2.20;;
38399;SDS011;24180;42.676;23.320;2023-03-11T08:05:14;2.50;;;2.30;;
38399;SDS011;24180;42.676;23.320;2023-03-11T08:07:39;2.83;;;2.60;;
38399;SDS011;24180;42.676;23.320;2023-03-11T08:10:05;3.13;;;2.43;;
38399;SDS011;24180;42.676;23.320;2023-03-11T08:12:30;3.37;;;3.07;;
38399;SDS011;24180;42.676;23.320;2023-03-11T08:14:56;2.70;;;2.50;;
38399;SDS011;24180;42.676;23.320;2023-03-11T08:17:21;3.00;;;2.70;;
38399;SDS011;24180;42.676;23.320;2023-03-11T08:19:49;3.10;;;3.00;;
38399;SDS011;24180;42.676;23.320;2023-03-11T08:22:15;2.80;;;2.60;;
38399;SDS011;24180;42.676;23.320;2023-03-11T08:24:40;3.37;;;3.17;;
38399;SDS011;24180;42.676;23.320;2023-03-11T08:27:06;2.97;;;2.77;;
38399;SDS011;24180;42.676;23.320;2023-03-11T08:29:33;2.70;;;2.50;;
38399;SDS011;24180;42.676;23.320;2023-03-11T08:31:59;2.37;;;2.20;;
38399;SDS011;24180;42.676;23.320;2023-03-11T08:34:24;3.47;;;3.17;;
38399;SDS011;24180;42.676;23.320;2023-03-11T08:36:51;6.60;;;3.13;;
38399;SDS011;24180;42.676;23.320;2023-03-11T08:39:17;2.60;;;2.40;;
38399;SDS011;24180;42.676;23.320;2023-03-11T08:41:42;2.60;;;2.40;;
38399;SDS011;24180;42.676;23.320;2023-03-11T08:44:08;3.00;;;2.50;;
38399;SDS011;24180;42.676;23.320;2023-03-11T08:46:38;2.60;;;2.50;;
38399;SDS011;24180;42.676;23.320;2023-03-11T08:49:05;6.47;;;3.40;;
38399;SDS011;24180;42.676;23.320;2023-03-11T08:51:31;7.67;;;5.50;;
38399;SDS011;24180;42.676;23.320;2023-03-11T08:53:58;3.83;;;3.23;;
38399;SDS011;24180;42.676;23.320;2023-03-11T08:56:24;4.33;;;2.60;;
38399;SDS011;24180;42.676;23.320;2023-03-11T08:58:50;7.67;;;3.17;;
38399;SDS011;24180;42.676;23.320;2023-03-11T09:01:16;4.27;;;2.93;;
38399;SDS011;24180;42.676;23.320;2023-03-11T09:03:45;3.10;;;2.90;;
38399;SDS011;24180;42.676;23.320;2023-03-11T09:06:11;3.37;;;2.90;;
38399;SDS011;24180;42.676;23.320;2023-03-11T09:08:39;4.23;;;3.83;;
38399;SDS011;24180;42.676;23.320;2023-03-11T09:11:05;4.93;;;3.00;;
38399;SDS011;24180;42.676;23.320;2023-03-11T09:13:31;3.70;;;3.40;;
38399;SDS011;24180;42.676;23.320;2023-03-11T09:15:57;3.70;;;3.17;;
38399;SDS011;24180;42.676;23.320;2023-03-11T09:18:22;2.67;;;2.40;;
38399;SDS011;24180;42.676;23.320;2023-03-11T09:20:47;5.33;;;3.03;;
38399;SDS011;24180;42.676;23.320;2023-03-11T09:23:14;3.30;;;2.80;;
38399;SDS011;24180;42.676;23.320;2023-03-11T09:25:40;3.80;;;3.37;;
38399;SDS011;24180;42.676;23.320;2023-03-11T09:28:06;2.87;;;2.67;;
38399;SDS011;24180;42.676;23.320;2023-03-11T09:30:32;3.13;;;2.00;;
38399;SDS011;24180;42.676;23.320;2023-03-11T09:32:57;3.63;;;2.90;;
38399;SDS011;24180;42.676;23.320;2023-03-11T09:35:23;2.17;;;2.07;;
38399;SDS011;24180;42.676;23.320;2023-03-11T09:37:49;3.23;;;2.63;;
38399;SDS011;24180;42.676;23.320;2023-03-11T09:40:15;3.20;;;2.90;;
38399;SDS011;24180;42.676;23.320;2023-03-11T09:45:48;2.70;;;2.40;;
38399;SDS011;24180;42.676;23.320;2023-03-11T09:48:53;3.23;;;2.47;;
38399;SDS011;24180;42.676;23.320;2023-03-11T09:51:31;2.60;;;2.40;;
38399;SDS011;24180;42.676;23.320;2023-03-11T09:54:03;2.73;;;2.53;;
38399;SDS011;24180;42.676;23.320;2023-03-11T09:56:30;2.80;;;2.60;;
38399;SDS011;24180;42.676;23.320;2023-03-11T09:59:00;3.47;;;3.17;;
38399;SDS011;24180;42.676;23.320;2023-03-11T10:01:31;4.47;;;3.70;;
38399;SDS011;24180;42.676;23.320;2023-03-11T10:06:50;3.80;;;2.80;;
38399;SDS011;24180;42.676;23.320;2023-03-11T10:12:00;3.17;;;2.97;;
38399;SDS011;24180;42.676;23.320;2023-03-11T10:28:47;2.50;;;2.30;;
38399;SDS011;24180;42.676;23.320;2023-03-11T10:33:46;3.13;;;2.47;;
38399;SDS011;24180;42.676;23.320;2023-03-11T10:36:20;2.40;;;2.30;;
38399;SDS011;24180;42.676;23.320;2023-03-11T10:38:50;2.70;;;2.50;;
38399;SDS011;24180;42.676;23.320;2023-03-11T10:41:29;2.97;;;2.77;;
38399;SDS011;24180;42.676;23.320;2023-03-11T10:46:41;2.30;;;2.10;;
38399;SDS011;24180;42.676;23.320;2023-03-11T10:49:13;3.10;;;2.90;;
38399;SDS011;24180;42.676;23.320;2023-03-11T10:51:40;4.93;;;2.30;;
38399;SDS011;24180;42.676;23.320;2023-03-11T10:54:26;2.57;;;2.43;;
38399;SDS011;24180;42.676;23.320;2023-03-11T10:56:58;2.53;;;2.33;;
38399;SDS011;24180;42.676;23.320;2023-03-11T10:59:32;2.67;;;2.50;;
38399;SDS011;24180;42.676;23.320;2023-03-11T11:02:19;2.57;;;2.47;;
38399;SDS011;24180;42.676;23.320;2023-03-11T11:12:36;3.83;;;2.87;;
38399;SDS011;24180;42.676;23.320;2023-03-11T11:15:31;3.20;;;3.00;;
38399;SDS011;24180;42.676;23.320;2023-03-11T11:20:52;3.40;;;2.80;;
38399;SDS011;24180;42.676;23.320;2023-03-11T11:26:15;4.60;;;2.97;;
38399;SDS011;24180;42.676;23.320;2023-03-11T11:28:46;3.17;;;2.97;;
38399;SDS011;24180;42.676;23.320;2023-03-11T11:31:42;3.63;;;3.07;;
38399;SDS011;24180;42.676;23.320;2023-03-11T11:36:59;3.00;;;2.70;;
38399;SDS011;24180;42.676;23.320;2023-03-11T11:39:29;3.20;;;2.80;;
38399;SDS011;24180;42.676;23.320;2023-03-11T11:42:00;2.53;;;2.30;;
38399;SDS011;24180;42.676;23.320;2023-03-11T11:44:30;3.33;;;3.10;;
38399;SDS011;24180;42.676;23.320;2023-03-11T11:47:03;3.80;;;3.30;;
38399;SDS011;24180;42.676;23.320;2023-03-11T11:49:37;2.60;;;2.40;;
38399;SDS011;24180;42.676;23.320;2023-03-11T11:52:15;3.37;;;2.90;;
38399;SDS011;24180;42.676;23.320;2023-03-11T11:54:49;3.63;;;2.40;;
38399;SDS011;24180;42.676;23.320;2023-03-11T11:57:18;2.77;;;2.57;;
38399;SDS011;24180;42.676;23.320;2023-03-11T11:59:45;3.17;;;2.77;;
38399;SDS011;24180;42.676;23.320;2023-03-11T12:15:48;2.67;;;2.47;;
38399;SDS011;24180;42.676;23.320;2023-03-11T12:18:39;3.20;;;2.90;;
38399;SDS011;24180;42.676;23.320;2023-03-11T12:21:21;2.93;;;2.73;;
38399;SDS011;24180;42.676;23.320;2023-03-11T12:26:51;3.23;;;2.93;;
38399;SDS011;24180;42.676;23.320;2023-03-11T12:32:30;4.13;;;2.70;;
38399;SDS011;24180;42.676;23.320;2023-03-11T12:35:42;4.17;;;3.70;;
38399;SDS011;24180;42.676;23.320;2023-03-11T12:37:56;5.97;;;4.13;;
38399;SDS011;24180;42.676;23.320;2023-03-11T12:45:56;2.40;;;2.30;;
38399;SDS011;24180;42.676;23.320;2023-03-11T12:50:53;3.30;;;2.30;;
38399;SDS011;24180;42.676;23.320;2023-03-11T12:53:19;2.77;;;2.57;;
38399;SDS011;24180;42.676;23.320;2023-03-11T12:56:00;3.27;;;2.97;;
38399;SDS011;24180;42.676;23.320;2023-03-11T12:59:24;2.83;;;2.50;;
38399;SDS011;24180;42.676;23.320;2023-03-11T13:01:26;4.73;;;2.50;;
38399;SDS011;24180;42.676;23.320;2023-03-11T13:07:28;4.23;;;2.83;;
38399;SDS011;24180;42.676;23.320;2023-03-11T13:10:11;2.80;;;2.60;;
38399;SDS011;24180;42.676;23.320;2023-03-11T13:12:49;3.13;;;2.83;;
38399;SDS011;24180;42.676;23.320;2023-03-11T13:18:00;5.37;;;3.10;;
38399;SDS011;24180;42.676;23.320;2023-03-11T13:25:42;3.33;;;2.90;;
38399;SDS011;24180;42.676;23.320;2023-03-11T13:34:12;3.40;;;2.60;;
38399;SDS011;24180;42.676;23.320;2023-03-11T13:41:42;3.03;;;2.73;;
38399;SDS011;24180;42.676;23.320;2023-03-11T13:44:32;2.23;;;2.13;;
38399;SDS011;24180;42.676;23.320;2023-03-11T13:47:03;3.00;;;2.70;;
38399;SDS011;24180;42.676;23.320;2023-03-11T13:52:08;2.63;;;2.43;;
38399;SDS011;24180;42.676;23.320;2023-03-11T13:57:18;3.30;;;3.00;;
38399;SDS011;24180;42.676;23.320;2023-03-11T13:59:44;3.10;;;2.90;;
38399;SDS011;24180;42.676;23.320;2023-03-11T14:02:17;4.13;;;3.17;;
38399;SDS011;24180;42.676;23.320;2023-03-11T14:05:04;4.00;;;3.63;;
38399;SDS011;24180;42.676;23.320;2023-03-11T14:07:32;5.17;;;3.33;;
38399;SDS011;24180;42.676;23.320;2023-03-11T14:11:00;5.63;;;4.17;;
38399;SDS011;24180;42.676;23.320;2023-03-11T14:13:12;3.87;;;3.20;;
38399;SDS011;24180;42.676;23.320;2023-03-11T14:15:55;8.37;;;5.63;;
38399;SDS011;24180;42.676;23.320;2023-03-11T14:20:52;4.20;;;3.00;;
38399;SDS011;24180;42.676;23.320;2023-03-11T14:23:18;6.93;;;5.47;;
38399;SDS011;24180;42.676;23.320;2023-03-11T14:25:44;3.80;;;3.37;;
38399;SDS011;24180;42.676;23.320;2023-03-11T14:28:19;5.47;;;3.00;;
38399;SDS011;24180;42.676;23.320;2023-03-11T14:30:58;4.00;;;2.90;;
38399;SDS011;24180;42.676;23.320;2023-03-11T14:33:26;3.50;;;3.20;;
38399;SDS011;24180;42.676;23.320;2023-03-11T14:35:55;3.53;;;2.90;;
38399;SDS011;24180;42.676;23.320;2023-03-11T14:38:24;3.17;;;2.97;;
38399;SDS011;24180;42.676;23.320;2023-03-11T14:41:01;2.80;;;2.60;;
38399;SDS011;24180;42.676;23.320;2023-03-11T14:43:33;3.30;;;3.00;;
38399;SDS011;24180;42.676;23.320;2023-03-11T14:46:03;2.97;;;2.80;;
38399;SDS011;24180;42.676;23.320;2023-03-11T14:51:01;4.07;;;2.87;;
38399;SDS011;24180;42.676;23.320;2023-03-11T14:53:37;4.50;;;2.90;;
38399;SDS011;24180;42.676;23.320;2023-03-11T14:56:15;3.30;;;3.00;;
38399;SDS011;24180;42.676;23.320;2023-03-11T15:01:20;2.93;;;2.73;;
38399;SDS011;24180;42.676;23.320;2023-03-11T15:03:57;3.50;;;2.80;;
38399;SDS011;24180;42.676;23.320;2023-03-11T15:06:27;3.87;;;3.30;;
38399;SDS011;24180;42.676;23.320;2023-03-11T15:08:55;3.27;;;2.90;;
38399;SDS011;24180;42.676;23.320;2023-03-11T15:11:25;5.20;;;3.53;;
38399;SDS011;24180;42.676;23.320;2023-03-11T15:13:52;4.73;;;3.43;;
38399;SDS011;24180;42.676;23.320;2023-03-11T15:16:20;4.67;;;3.73;;
38399;SDS011;24180;42.676;23.320;2023-03-11T15:18:46;4.50;;;3.20;;
38399;SDS011;24180;42.676;23.320;2023-03-11T15:21:16;8.10;;;3.60;;
38399;SDS011;24180;42.676;23.320;2023-03-11T15:24:04;5.63;;;3.97;;
38399;SDS011;24180;42.676;23.320;2023-03-11T15:26:33;5.97;;;3.77;;
38399;SDS011;24180;42.676;23.320;2023-03-11T15:29:03;3.50;;;3.20;;
38399;SDS011;24180;42.676;23.320;2023-03-11T15:31:37;3.83;;;3.53;;
38399;SDS011;24180;42.676;23.320;2023-03-11T15:34:49;5.03;;;3.80;;
38399;SDS011;24180;42.676;23.320;2023-03-11T15:42:00;4.70;;;3.40;;
38399;SDS011;24180;42.676;23.320;2023-03-11T15:44:47;3.77;;;3.30;;
38399;SDS011;24180;42.676;23.320;2023-03-11T15:47:14;6.43;;;4.10;;
38399;SDS011;24180;42.676;23.320;2023-03-11T15:49:47;5.47;;;4.80;;
38399;SDS011;24180;42.676;23.320;2023-03-11T15:52:13;7.07;;;5.73;;
38399;SDS011;24180;42.676;23.320;2023-03-11T15:54:57;6.40;;;5.27;;
38399;SDS011;24180;42.676;23.320;2023-03-11T15:57:24;5.77;;;5.27;;
38399;SDS011;24180;42.676;23.320;2023-03-11T15:59:52;6.70;;;6.10;;
38399;SDS011;24180;42.676;23.320;2023-03-11T16:02:23;5.77;;;5.27;;
38399;SDS011;24180;42.676;23.320;2023-03-11T16:04:53;8.43;;;7.10;;
38399;SDS011;24180;42.676;23.320;2023-03-11T16:07:18;7.30;;;6.60;;
38399;SDS011;24180;42.676;23.320;2023-03-11T16:09:44;7.70;;;7.00;;
38399;SDS011;24180;42.676;23.320;2023-03-11T16:12:13;9.30;;;8.30;;
38399;SDS011;24180;42.676;23.320;2023-03-11T16:14:43;5.13;;;4.70;;
38399;SDS011;24180;42.676;23.320;2023-03-11T16:17:09;7.27;;;6.63;;
38399;SDS011;24180;42.676;23.320;2023-03-11T16:19:38;5.93;;;5.43;;
38399;SDS011;24180;42.676;23.320;2023-03-11T16:22:04;7.33;;;6.63;;
38399;SDS011;24180;42.676;23.320;2023-03-11T16:24:30;5.53;;;5.13;;
38399;SDS011;24180;42.676;23.320;2023-03-11T16:26:55;6.23;;;5.63;;
38399;SDS011;24180;42.676;23.320;2023-03-11T16:29:21;6.47;;;5.87;;
38399;SDS011;24180;42.676;23.320;2023-03-11T16:31:47;6.17;;;5.00;;
38399;SDS011;24180;42.676;23.320;2023-03-11T16:34:13;7.03;;;6.43;;
38399;SDS011;24180;42.676;23.320;2023-03-11T16:36:39;5.13;;;4.73;;
38399;SDS011;24180;42.676;23.320;2023-03-11T16:39:04;3.87;;;3.57;;